USTS Kennedy — KVMU — position and weather

sailwx.info

Track history (hours):
 
Tides and Currents Weather Stations Pressure Air Temp Water Temp Dewpoint Dewpoint Depression Visibility Wind Speed Wind Dir Waves Ship Positions

USTS Kennedy (United States)

Training ship of Massachusetts Maritime Academy. Ex Cape Bon, ex Velma Lykes, ex Enterprise.

Ship's website: http://www.maritime.edu/

Owner: Massachusetts Maritime Academy, Buzzards Bay, MA. More information available from US FCC via Universal Licensing System and Coast Guard Vessel Documentation Center.

Last reported at 2016-Sep-01 13:19 UTC. Time now 2016-Sep-25 20:56 UTC.
Position N 41°47' W 070°29'.
Warning: this ship's position is 24 days out of date.

Type: Ship. MMSI: 338919000.

Date/timePositionNaut miles runAvg speedWind from/ knotsBaromVisibWave heightAir tempDewpointWater temp
2016-Sep-01 13:19N 41°47' W 070°29'83 7.6
2016-Sep-01 02:24N 41°14' W 072°10'911.1
2016-Sep-01 01:33N 41°13' W 072°22'1311.3
2016-Sep-01 00:27N 41°08' W 072°38'1311.8
2016-Aug-31 23:22N 41°05' W 072°54'4511.6
2016-Aug-31 19:32N 40°48' W 073°49'8 8.1
2016-Aug-31 18:34N 40°45' W 073°58'8 8.1
2016-Aug-31 17:33N 40°37' W 074°03'9 9.4
2016-Aug-31 16:33N 40°30' W 073°56'12 8.9
2016-Aug-31 15:13N 40°27' W 073°40'40 5.0
2016-Aug-31 07:07N 40°34' W 072°48'20 5.1
2016-Aug-31 03:14N 40°42' W 072°24'101 2.4
2016-Aug-29 09:33N 41°44' W 070°38'0 0.0
2016-Aug-29 08:30N 41°44' W 070°38'0 0.0
2016-Aug-29 07:33N 41°44' W 070°38'0 0.0
2016-Aug-29 06:27N 41°44' W 070°38'0 0.0
2016-Aug-29 05:30N 41°44' W 070°38'0 0.0
2016-Aug-29 04:30N 41°44' W 070°38'0 0.0
2016-Aug-29 03:33N 41°44' W 070°38'0 0.0
2016-Aug-29 02:30N 41°44' W 070°38'0 0.0
2016-Aug-29 01:33N 41°44' W 070°38'0 0.0
2016-Aug-28 21:03N 41°44' W 070°38'0 0.0
2016-Aug-28 20:33N 41°44' W 070°38'0 0.0
2016-Aug-28 19:30N 41°44' W 070°38'0 0.0
2016-Aug-28 07:33N 41°44' W 070°38'0 0.0
2016-Aug-27 13:21N 41°44' W 070°38'0 0.0
2016-Aug-27 04:21N 41°44' W 070°38'  
Track history (hours):
 
Tides and Currents Weather Stations Pressure Air Temp Water Temp Dewpoint Dewpoint Depression Visibility Wind Speed Wind Dir Waves Ship Positions

USTS Kennedy (United States)

Training ship of Massachusetts Maritime Academy. Ex Cape Bon, ex Velma Lykes, ex Enterprise.

Ship's website: http://www.maritime.edu/

Owner: Massachusetts Maritime Academy, Buzzards Bay, MA. More information available from US FCC via Universal Licensing System and Coast Guard Vessel Documentation Center.

Last reported at 2016-Sep-01 13:19 UTC. Time now 2016-Sep-25 20:56 UTC.
Position N 41°47' W 070°29'.
Warning: this ship's position is 24 days out of date.

Type: Ship. MMSI: 338919000.

Date/timePositionNaut miles runAvg speedWind from/ knotsBaromVisibWave heightAir tempDewpointWater temp
2016-Sep-01 13:19N 41°47' W 070°29'83 7.6
2016-Sep-01 02:24N 41°14' W 072°10'911.1
2016-Sep-01 01:33N 41°13' W 072°22'1311.3
2016-Sep-01 00:27N 41°08' W 072°38'1311.8
2016-Aug-31 23:22N 41°05' W 072°54'4511.6
2016-Aug-31 19:32N 40°48' W 073°49'8 8.1
2016-Aug-31 18:34N 40°45' W 073°58'8 8.1
2016-Aug-31 17:33N 40°37' W 074°03'9 9.4
2016-Aug-31 16:33N 40°30' W 073°56'12 8.9
2016-Aug-31 15:13N 40°27' W 073°40'40 5.0
2016-Aug-31 07:07N 40°34' W 072°48'20 5.1
2016-Aug-31 03:14N 40°42' W 072°24'101 2.4
2016-Aug-29 09:33N 41°44' W 070°38'0 0.0
2016-Aug-29 08:30N 41°44' W 070°38'0 0.0
2016-Aug-29 07:33N 41°44' W 070°38'0 0.0
2016-Aug-29 06:27N 41°44' W 070°38'0 0.0
2016-Aug-29 05:30N 41°44' W 070°38'0 0.0
2016-Aug-29 04:30N 41°44' W 070°38'0 0.0
2016-Aug-29 03:33N 41°44' W 070°38'0 0.0
2016-Aug-29 02:30N 41°44' W 070°38'0 0.0
2016-Aug-29 01:33N 41°44' W 070°38'0 0.0
2016-Aug-28 21:03N 41°44' W 070°38'0 0.0
2016-Aug-28 20:33N 41°44' W 070°38'0 0.0
2016-Aug-28 19:30N 41°44' W 070°38'0 0.0
2016-Aug-28 07:33N 41°44' W 070°38'0 0.0
2016-Aug-27 13:21N 41°44' W 070°38'0 0.0
2016-Aug-27 04:21N 41°44' W 070°38'  

Dump ship's entire track history